Main page
METAR-TAF:

METAR-TAF

Airports :

Kerman, Iran

Kerman Airport

latitude: 30-15N, longitude: 056-58E, elevation: 1748 m

Current weather observation

The report was made 41 minutes ago, at 03:00 UTC
Wind 4 kt from the East
Temperature 19°C
Humidity 34%
Pressure 1026 hPa
Visibility 10 km or more
no clouds below 1500 m and no cumulonimbus

METAR: OIKK 290300Z 08004KT CAVOK 19/03 Q1025 A3029

Time: 08:11 (03:41 UTC)

Forecast

The report was made 4 hours and 41 minutes ago, at 23:00 UTC
Forecast valid from 29 at 00 UTC to 30 at 06 UTC
Wind 10 kt from the East/Southeast
Visibility: 8000 m
Few clouds at a height of 4000 ft
Temporary
from 29 at 06 UTC to 29 at 16 UTC
Wind 19 kt from the West
Visibility: 5000 m
Few clouds at a height of 3000 ft, Cumulonimbus.
Scattered clouds at a height of 3500 ft
Broken clouds at a height of 8000 ft
rain showers

TAF: OIKK 282300Z 2900/3006 11005MPS 8000 FEW040 TEMPO 2906/2916 26010MPS 5000 SHRA FEW030CB SCT035 BKN080

Weather observations and forecasts of more than 4000 airports (METAR and TAF reports).

The available stations are represented by yellow and red dots on the map.

Hover mouse over dot to see the name of the station.

Then click to see weather observations and forecasts.

To change the map : click on the green buttons with a black cross to zoom in, on the green button with a dash to zoom out, or on the green arrows for adjacent maps.


METAR-TAF: